AGROMETEOROLOŠKI PORTAL

vinorodna pokrajina

Temelj dobrega kmetovanja

Pregled podatkov za lokacijo Borovnica, meteorološka postaja 27469

Pregled senzorjev na lokaciji

ID Ime Zadnja
vrednost
Datum in čas
meritve
(lokalni čas)
Tip
senzorja
4324 Omočenost lista (1,5 m) (U) 8 U 30.9.2022 10:30 A730WET
2195 Padavine (mm) 0 mm 30.9.2022 10:30 Generic 0.2 mm
1684 Relativna zračna vlaga (2 m) (%RH) 100 %RH 30.9.2022 10:30 Generic 0 - 100 %
1683 Temperatura (2 m) (°C) 13,4 °C 30.9.2022 10:30 Generic -40 - +60 °C
5134 Hitrost vetra (3 m) (km/h) 4 km/h 30.9.2022 10:30 Generic 200 km/h

Pregled podatkov zadnjih 24 ur

Zap.
št.
Datum in čas
(lokalni čas)
Borovnica
Omočenost
lista
(1,5
m)
Padavine Relativna
zračna
vlaga
(2
m)
Temperatura
(2
m)
Hitrost
vetra
(3
m)
1 30.9.2022 10:30 8 0 99,9 13,4 4,1
2 30.9.2022 10:00 9 0 99,9 13,3 4,1
3 30.9.2022 09:30 9 0 99,9 12,5 2,8
4 30.9.2022 09:00 9 0 99,9 11,9 2,5
5 30.9.2022 08:30 10 0 99,9 11,7 0,9
6 30.9.2022 08:00 10 0 99,9 11 0,7
7 30.9.2022 07:30 10 0,2 99,9 10,7 0,3
8 30.9.2022 07:00 10 0,2 99,9 11 1
9 30.9.2022 06:30 10 0,2 99,9 11,1 2,1
10 30.9.2022 06:00 10 0,6 99,9 11,2 2,8
11 30.9.2022 05:30 9 0,4 99,9 11,1 3,8
12 30.9.2022 05:00 9 0,6 99,9 11 2,2
13 30.9.2022 04:30 9 0,6 99,9 11 3,4
14 30.9.2022 04:00 10 2,4 99,9 10,9 1,8
15 30.9.2022 03:30 10 1,2 99,9 11 1,6
16 30.9.2022 03:00 10 0,4 99,9 11 2,4
17 30.9.2022 02:30 10 1,4 99,9 11 1,5
18 30.9.2022 02:00 10 3 99,9 11,2 3,7
19 30.9.2022 01:30 10 0 99,9 11,2 6,2
20 30.9.2022 01:00 10 0 99,9 11,2 5,6
21 30.9.2022 00:30 10 0 99,9 11,2 5,7
22 30.9.2022 00:00 10 0 99,9 11,1 5,2
23 29.9.2022 23:30 10 0 99,9 11 3,4
24 29.9.2022 23:00 10 0 99,9 11,1 3,5
25 29.9.2022 22:30 10 0 99,9 11,1 2,6
26 29.9.2022 22:00 10 0 99,9 11,1 2,7
27 29.9.2022 21:30 10 0 99,9 11,1 2,2
28 29.9.2022 21:00 10 0 99,9 11 1
29 29.9.2022 20:30 10 0 99,9 11 1,9
30 29.9.2022 20:00 10 0 99,9 10,9 3,7
31 29.9.2022 19:30 10 0,2 99,9 10,8 5,1
32 29.9.2022 19:00 10 1 99,9 10,8 3,1
33 29.9.2022 18:30 10 0 99,9 10,8 3,7
34 29.9.2022 18:00 10 5 99,9 10,8 3
35 29.9.2022 17:30 10 2,8 99,9 11 3,7
36 29.9.2022 17:00 10 0,4 99,9 11,1 7,4
37 29.9.2022 16:30 10 0,4 99,9 11,2 9,7
38 29.9.2022 16:00 10 0,2 99,9 11,5 11,8
39 29.9.2022 15:30 10 0,8 99,9 11,6 12
40 29.9.2022 15:00 10 0,4 99,9 12 14,1
41 29.9.2022 14:30 9 0 99,9 12,5 12,1
42 29.9.2022 14:00 10 3,4 99,9 12,6 8,2
43 29.9.2022 13:30 10 7,2 99,9 12,6 7,6
44 29.9.2022 13:00 10 1 99,9 12,8 7,2
45 29.9.2022 12:30 10 0,8 99,9 12,7 8,4
46 29.9.2022 12:00 10 3,6 99,9 12,7 6,3